sensor_id;sensor_type;location;lat;lon;timestamp;P1;durP1;ratioP1;P2;durP2;ratioP2
44110;SDS011;29774;52.664;5.074;2022-12-20T00:02:18;5.25;;;2.80;;
44110;SDS011;29774;52.664;5.074;2022-12-20T00:04:43;4.20;;;3.33;;
44110;SDS011;29774;52.664;5.074;2022-12-20T00:07:09;4.55;;;3.08;;
44110;SDS011;29774;52.664;5.074;2022-12-20T00:09:34;2.97;;;2.72;;
44110;SDS011;29774;52.664;5.074;2022-12-20T00:12:00;4.28;;;2.72;;
44110;SDS011;29774;52.664;5.074;2022-12-20T00:14:25;4.35;;;3.45;;
44110;SDS011;29774;52.664;5.074;2022-12-20T00:16:51;3.65;;;2.45;;
44110;SDS011;29774;52.664;5.074;2022-12-20T00:19:17;5.28;;;3.00;;
44110;SDS011;29774;52.664;5.074;2022-12-20T00:21:42;5.57;;;2.92;;
44110;SDS011;29774;52.664;5.074;2022-12-20T00:24:08;4.28;;;3.10;;
44110;SDS011;29774;52.664;5.074;2022-12-20T00:26:35;2.97;;;2.63;;
44110;SDS011;29774;52.664;5.074;2022-12-20T00:29:02;3.22;;;2.80;;
44110;SDS011;29774;52.664;5.074;2022-12-20T00:31:29;3.75;;;2.80;;
44110;SDS011;29774;52.664;5.074;2022-12-20T00:33:56;4.00;;;2.70;;
44110;SDS011;29774;52.664;5.074;2022-12-20T00:36:24;4.78;;;3.38;;
44110;SDS011;29774;52.664;5.074;2022-12-20T00:38:51;2.63;;;2.42;;
44110;SDS011;29774;52.664;5.074;2022-12-20T00:41:26;4.35;;;3.20;;
44110;SDS011;29774;52.664;5.074;2022-12-20T00:43:53;3.53;;;2.72;;
44110;SDS011;29774;52.664;5.074;2022-12-20T00:46:19;3.97;;;3.08;;
44110;SDS011;29774;52.664;5.074;2022-12-20T00:48:47;4.70;;;3.00;;
44110;SDS011;29774;52.664;5.074;2022-12-20T00:51:14;3.42;;;3.03;;
44110;SDS011;29774;52.664;5.074;2022-12-20T00:53:42;4.53;;;3.15;;
44110;SDS011;29774;52.664;5.074;2022-12-20T00:56:09;2.75;;;2.33;;
44110;SDS011;29774;52.664;5.074;2022-12-20T00:58:35;5.38;;;2.88;;
44110;SDS011;29774;52.664;5.074;2022-12-20T01:01:03;5.22;;;2.97;;
44110;SDS011;29774;52.664;5.074;2022-12-20T01:03:30;4.28;;;3.40;;
44110;SDS011;29774;52.664;5.074;2022-12-20T01:05:56;4.93;;;2.85;;
44110;SDS011;29774;52.664;5.074;2022-12-20T01:08:25;3.92;;;2.75;;
44110;SDS011;29774;52.664;5.074;2022-12-20T01:10:58;5.07;;;3.00;;
44110;SDS011;29774;52.664;5.074;2022-12-20T01:13:27;3.72;;;3.05;;
44110;SDS011;29774;52.664;5.074;2022-12-20T01:15:54;4.47;;;2.90;;
44110;SDS011;29774;52.664;5.074;2022-12-20T01:18:20;6.13;;;3.20;;
44110;SDS011;29774;52.664;5.074;2022-12-20T01:20:46;4.38;;;2.67;;
44110;SDS011;29774;52.664;5.074;2022-12-20T01:23:11;3.80;;;2.67;;
44110;SDS011;29774;52.664;5.074;2022-12-20T01:25:37;6.65;;;3.83;;
44110;SDS011;29774;52.664;5.074;2022-12-20T01:28:02;4.22;;;3.30;;
44110;SDS011;29774;52.664;5.074;2022-12-20T01:30:28;3.60;;;2.88;;
44110;SDS011;29774;52.664;5.074;2022-12-20T01:32:54;2.92;;;2.45;;
44110;SDS011;29774;52.664;5.074;2022-12-20T01:35:19;5.53;;;3.13;;
44110;SDS011;29774;52.664;5.074;2022-12-20T01:37:45;4.03;;;3.10;;
44110;SDS011;29774;52.664;5.074;2022-12-20T01:40:10;4.50;;;2.75;;
44110;SDS011;29774;52.664;5.074;2022-12-20T01:42:36;3.03;;;2.60;;
44110;SDS011;29774;52.664;5.074;2022-12-20T01:45:02;6.25;;;3.10;;
44110;SDS011;29774;52.664;5.074;2022-12-20T01:47:32;3.03;;;2.65;;
44110;SDS011;29774;52.664;5.074;2022-12-20T01:50:00;4.03;;;3.17;;
44110;SDS011;29774;52.664;5.074;2022-12-20T01:52:31;3.85;;;2.97;;
44110;SDS011;29774;52.664;5.074;2022-12-20T01:55:17;4.07;;;2.97;;
44110;SDS011;29774;52.664;5.074;2022-12-20T01:57:48;5.30;;;3.55;;
44110;SDS011;29774;52.664;5.074;2022-12-20T02:00:15;4.57;;;2.97;;
44110;SDS011;29774;52.664;5.074;2022-12-20T02:02:42;4.57;;;3.15;;
44110;SDS011;29774;52.664;5.074;2022-12-20T02:05:11;4.00;;;2.60;;
44110;SDS011;29774;52.664;5.074;2022-12-20T02:07:38;3.90;;;2.50;;
44110;SDS011;29774;52.664;5.074;2022-12-20T02:10:06;3.55;;;2.58;;
44110;SDS011;29774;52.664;5.074;2022-12-20T02:12:40;3.45;;;2.38;;
44110;SDS011;29774;52.664;5.074;2022-12-20T02:15:15;3.90;;;3.10;;
44110;SDS011;29774;52.664;5.074;2022-12-20T02:18:14;2.97;;;2.47;;
44110;SDS011;29774;52.664;5.074;2022-12-20T02:23:32;5.15;;;3.22;;
44110;SDS011;29774;52.664;5.074;2022-12-20T02:26:49;3.13;;;2.80;;
44110;SDS011;29774;52.664;5.074;2022-12-20T02:34:43;3.88;;;2.45;;
44110;SDS011;29774;52.664;5.074;2022-12-20T02:37:09;4.25;;;2.58;;
44110;SDS011;29774;52.664;5.074;2022-12-20T02:39:36;3.08;;;2.70;;
44110;SDS011;29774;52.664;5.074;2022-12-20T02:42:05;2.95;;;2.40;;
44110;SDS011;29774;52.664;5.074;2022-12-20T02:44:34;2.72;;;2.22;;
44110;SDS011;29774;52.664;5.074;2022-12-20T02:47:26;2.63;;;2.00;;
44110;SDS011;29774;52.664;5.074;2022-12-20T02:49:57;2.63;;;2.42;;
44110;SDS011;29774;52.664;5.074;2022-12-20T02:52:24;4.13;;;2.30;;
44110;SDS011;29774;52.664;5.074;2022-12-20T02:54:54;3.08;;;2.15;;
44110;SDS011;29774;52.664;5.074;2022-12-20T03:00:36;3.90;;;2.55;;
44110;SDS011;29774;52.664;5.074;2022-12-20T03:03:06;3.20;;;2.08;;
44110;SDS011;29774;52.664;5.074;2022-12-20T03:05:50;2.72;;;1.83;;
44110;SDS011;29774;52.664;5.074;2022-12-20T03:08:18;3.17;;;2.20;;
44110;SDS011;29774;52.664;5.074;2022-12-20T03:10:45;2.92;;;2.25;;
44110;SDS011;29774;52.664;5.074;2022-12-20T03:13:10;2.17;;;1.90;;
44110;SDS011;29774;52.664;5.074;2022-12-20T03:15:36;3.38;;;2.50;;
44110;SDS011;29774;52.664;5.074;2022-12-20T03:18:02;2.40;;;1.92;;
44110;SDS011;29774;52.664;5.074;2022-12-20T03:20:28;3.70;;;2.55;;
44110;SDS011;29774;52.664;5.074;2022-12-20T03:22:54;4.18;;;2.75;;
44110;SDS011;29774;52.664;5.074;2022-12-20T03:25:19;3.17;;;2.20;;
44110;SDS011;29774;52.664;5.074;2022-12-20T03:27:46;2.85;;;2.33;;
44110;SDS011;29774;52.664;5.074;2022-12-20T03:30:12;3.45;;;2.08;;
44110;SDS011;29774;52.664;5.074;2022-12-20T03:32:38;3.03;;;2.30;;
44110;SDS011;29774;52.664;5.074;2022-12-20T03:35:04;3.83;;;2.35;;
44110;SDS011;29774;52.664;5.074;2022-12-20T03:37:29;2.70;;;2.10;;
44110;SDS011;29774;52.664;5.074;2022-12-20T03:39:55;2.70;;;1.80;;
44110;SDS011;29774;52.664;5.074;2022-12-20T03:42:21;2.90;;;2.20;;
44110;SDS011;29774;52.664;5.074;2022-12-20T03:44:46;2.72;;;2.05;;
44110;SDS011;29774;52.664;5.074;2022-12-20T03:47:12;3.38;;;2.20;;
44110;SDS011;29774;52.664;5.074;2022-12-20T03:49:38;2.10;;;1.80;;
44110;SDS011;29774;52.664;5.074;2022-12-20T03:52:03;4.43;;;2.35;;
44110;SDS011;29774;52.664;5.074;2022-12-20T03:54:29;2.00;;;1.88;;
44110;SDS011;29774;52.664;5.074;2022-12-20T03:56:54;2.67;;;1.65;;
44110;SDS011;29774;52.664;5.074;2022-12-20T03:59:20;3.33;;;2.42;;
44110;SDS011;29774;52.664;5.074;2022-12-20T04:01:46;4.85;;;2.35;;
44110;SDS011;29774;52.664;5.074;2022-12-20T04:04:12;2.40;;;2.05;;
44110;SDS011;29774;52.664;5.074;2022-12-20T04:06:38;2.42;;;1.77;;
44110;SDS011;29774;52.664;5.074;2022-12-20T04:09:04;2.80;;;1.67;;
44110;SDS011;29774;52.664;5.074;2022-12-20T04:11:30;1.80;;;1.70;;
44110;SDS011;29774;52.664;5.074;2022-12-20T04:13:55;2.55;;;2.05;;
44110;SDS011;29774;52.664;5.074;2022-12-20T04:16:24;2.35;;;1.85;;
44110;SDS011;29774;52.664;5.074;2022-12-20T04:18:51;3.05;;;2.20;;
44110;SDS011;29774;52.664;5.074;2022-12-20T04:21:21;2.38;;;2.00;;
44110;SDS011;29774;52.664;5.074;2022-12-20T04:23:51;6.93;;;2.53;;
44110;SDS011;29774;52.664;5.074;2022-12-20T04:26:17;3.38;;;2.15;;
44110;SDS011;29774;52.664;5.074;2022-12-20T04:28:43;1.83;;;1.70;;
44110;SDS011;29774;52.664;5.074;2022-12-20T04:31:08;3.30;;;1.67;;
44110;SDS011;29774;52.664;5.074;2022-12-20T04:33:34;2.22;;;1.52;;
44110;SDS011;29774;52.664;5.074;2022-12-20T04:36:00;3.10;;;2.00;;
44110;SDS011;29774;52.664;5.074;2022-12-20T04:38:26;5.18;;;2.25;;
44110;SDS011;29774;52.664;5.074;2022-12-20T04:40:52;2.70;;;2.30;;
44110;SDS011;29774;52.664;5.074;2022-12-20T04:43:19;3.00;;;2.50;;
44110;SDS011;29774;52.664;5.074;2022-12-20T04:45:48;4.53;;;2.03;;
44110;SDS011;29774;52.664;5.074;2022-12-20T04:48:16;4.45;;;2.08;;
44110;SDS011;29774;52.664;5.074;2022-12-20T04:50:42;2.10;;;1.73;;
44110;SDS011;29774;52.664;5.074;2022-12-20T04:53:12;2.42;;;2.20;;
44110;SDS011;29774;52.664;5.074;2022-12-20T04:55:57;4.57;;;2.35;;
44110;SDS011;29774;52.664;5.074;2022-12-20T04:58:23;2.13;;;1.75;;
44110;SDS011;29774;52.664;5.074;2022-12-20T05:00:49;2.65;;;2.03;;
44110;SDS011;29774;52.664;5.074;2022-12-20T05:03:16;1.85;;;1.55;;
44110;SDS011;29774;52.664;5.074;2022-12-20T05:05:42;2.95;;;1.85;;
44110;SDS011;29774;52.664;5.074;2022-12-20T05:08:08;3.33;;;2.20;;
44110;SDS011;29774;52.664;5.074;2022-12-20T05:10:33;3.15;;;1.83;;
44110;SDS011;29774;52.664;5.074;2022-12-20T05:12:59;2.85;;;1.95;;
44110;SDS011;29774;52.664;5.074;2022-12-20T05:15:25;2.00;;;1.80;;
44110;SDS011;29774;52.664;5.074;2022-12-20T05:17:50;3.72;;;2.17;;
44110;SDS011;29774;52.664;5.074;2022-12-20T05:20:16;1.92;;;1.77;;
44110;SDS011;29774;52.664;5.074;2022-12-20T05:22:42;2.28;;;2.03;;
44110;SDS011;29774;52.664;5.074;2022-12-20T05:25:26;3.58;;;1.67;;
44110;SDS011;29774;52.664;5.074;2022-12-20T05:28:10;3.17;;;2.05;;
44110;SDS011;29774;52.664;5.074;2022-12-20T05:30:36;2.22;;;2.03;;
44110;SDS011;29774;52.664;5.074;2022-12-20T05:33:02;3.47;;;2.33;;
44110;SDS011;29774;52.664;5.074;2022-12-20T05:35:27;2.72;;;2.22;;
44110;SDS011;29774;52.664;5.074;2022-12-20T05:37:53;4.18;;;3.00;;
44110;SDS011;29774;52.664;5.074;2022-12-20T05:40:19;2.63;;;1.65;;
44110;SDS011;29774;52.664;5.074;2022-12-20T05:42:44;3.10;;;1.80;;
44110;SDS011;29774;52.664;5.074;2022-12-20T05:45:10;3.47;;;2.67;;
44110;SDS011;29774;52.664;5.074;2022-12-20T05:47:35;3.85;;;2.67;;
44110;SDS011;29774;52.664;5.074;2022-12-20T05:50:03;2.40;;;2.03;;
44110;SDS011;29774;52.664;5.074;2022-12-20T05:52:29;2.17;;;1.98;;
44110;SDS011;29774;52.664;5.074;2022-12-20T05:54:55;3.42;;;2.67;;
44110;SDS011;29774;52.664;5.074;2022-12-20T05:57:20;4.38;;;2.75;;
44110;SDS011;29774;52.664;5.074;2022-12-20T05:59:46;3.97;;;2.00;;
44110;SDS011;29774;52.664;5.074;2022-12-20T06:02:12;3.25;;;2.90;;
44110;SDS011;29774;52.664;5.074;2022-12-20T06:04:39;6.55;;;3.28;;
44110;SDS011;29774;52.664;5.074;2022-12-20T06:07:04;7.38;;;3.40;;
44110;SDS011;29774;52.664;5.074;2022-12-20T06:09:30;5.63;;;3.13;;
44110;SDS011;29774;52.664;5.074;2022-12-20T06:11:57;2.58;;;2.20;;
44110;SDS011;29774;52.664;5.074;2022-12-20T06:14:23;3.95;;;3.00;;
44110;SDS011;29774;52.664;5.074;2022-12-20T06:16:49;3.88;;;3.30;;
44110;SDS011;29774;52.664;5.074;2022-12-20T06:19:14;2.83;;;2.53;;
44110;SDS011;29774;52.664;5.074;2022-12-20T06:21:40;4.25;;;2.90;;
44110;SDS011;29774;52.664;5.074;2022-12-20T06:24:06;5.20;;;3.30;;
44110;SDS011;29774;52.664;5.074;2022-12-20T06:26:32;6.03;;;3.25;;
44110;SDS011;29774;52.664;5.074;2022-12-20T06:29:01;4.20;;;2.35;;
44110;SDS011;29774;52.664;5.074;2022-12-20T06:31:37;5.70;;;3.10;;
44110;SDS011;29774;52.664;5.074;2022-12-20T06:34:03;4.15;;;3.15;;
44110;SDS011;29774;52.664;5.074;2022-12-20T06:36:29;4.00;;;3.10;;
44110;SDS011;29774;52.664;5.074;2022-12-20T06:38:55;3.42;;;3.05;;
44110;SDS011;29774;52.664;5.074;2022-12-20T06:41:20;3.72;;;2.45;;
44110;SDS011;29774;52.664;5.074;2022-12-20T06:43:46;7.32;;;3.50;;
44110;SDS011;29774;52.664;5.074;2022-12-20T06:46:11;5.28;;;3.28;;
44110;SDS011;29774;52.664;5.074;2022-12-20T06:48:37;5.07;;;3.05;;
44110;SDS011;29774;52.664;5.074;2022-12-20T06:51:03;4.50;;;3.33;;
44110;SDS011;29774;52.664;5.074;2022-12-20T06:53:28;2.55;;;2.35;;
44110;SDS011;29774;52.664;5.074;2022-12-20T06:55:54;2.63;;;2.30;;
44110;SDS011;29774;52.664;5.074;2022-12-20T06:58:19;3.65;;;2.60;;
44110;SDS011;29774;52.664;5.074;2022-12-20T07:00:45;5.03;;;3.00;;
44110;SDS011;29774;52.664;5.074;2022-12-20T07:03:11;5.68;;;2.72;;
44110;SDS011;29774;52.664;5.074;2022-12-20T07:05:37;4.25;;;3.05;;
44110;SDS011;29774;52.664;5.074;2022-12-20T07:08:03;4.72;;;3.28;;
44110;SDS011;29774;52.664;5.074;2022-12-20T07:10:29;3.40;;;2.65;;
44110;SDS011;29774;52.664;5.074;2022-12-20T07:12:55;2.88;;;2.40;;
44110;SDS011;29774;52.664;5.074;2022-12-20T07:15:21;3.90;;;2.83;;
44110;SDS011;29774;52.664;5.074;2022-12-20T07:17:47;3.45;;;2.47;;
44110;SDS011;29774;52.664;5.074;2022-12-20T07:20:12;3.95;;;2.55;;
44110;SDS011;29774;52.664;5.074;2022-12-20T07:22:38;5.18;;;2.13;;
44110;SDS011;29774;52.664;5.074;2022-12-20T07:25:04;4.28;;;3.05;;
44110;SDS011;29774;52.664;5.074;2022-12-20T07:27:30;6.05;;;2.92;;
44110;SDS011;29774;52.664;5.074;2022-12-20T07:29:56;2.30;;;2.10;;
44110;SDS011;29774;52.664;5.074;2022-12-20T07:32:22;4.55;;;3.00;;
44110;SDS011;29774;52.664;5.074;2022-12-20T07:34:47;3.47;;;2.60;;
44110;SDS011;29774;52.664;5.074;2022-12-20T07:37:13;3.60;;;2.80;;
44110;SDS011;29774;52.664;5.074;2022-12-20T07:39:38;2.92;;;1.90;;
44110;SDS011;29774;52.664;5.074;2022-12-20T07:42:06;4.63;;;2.78;;
44110;SDS011;29774;52.664;5.074;2022-12-20T07:44:33;3.22;;;2.03;;
44110;SDS011;29774;52.664;5.074;2022-12-20T07:46:59;3.13;;;2.53;;
44110;SDS011;29774;52.664;5.074;2022-12-20T07:49:24;2.33;;;2.10;;
44110;SDS011;29774;52.664;5.074;2022-12-20T07:51:51;4.53;;;2.63;;
44110;SDS011;29774;52.664;5.074;2022-12-20T07:54:22;3.03;;;2.33;;
44110;SDS011;29774;52.664;5.074;2022-12-20T07:57:02;3.22;;;2.15;;
44110;SDS011;29774;52.664;5.074;2022-12-20T07:59:35;3.08;;;2.17;;
44110;SDS011;29774;52.664;5.074;2022-12-20T08:02:04;4.72;;;2.08;;
44110;SDS011;29774;52.664;5.074;2022-12-20T08:04:31;4.32;;;2.17;;
44110;SDS011;29774;52.664;5.074;2022-12-20T08:06:58;4.03;;;1.60;;
44110;SDS011;29774;52.664;5.074;2022-12-20T08:09:25;3.20;;;2.00;;
44110;SDS011;29774;52.664;5.074;2022-12-20T08:11:54;2.67;;;2.13;;
44110;SDS011;29774;52.664;5.074;2022-12-20T08:14:22;2.70;;;1.83;;
44110;SDS011;29774;52.664;5.074;2022-12-20T08:16:48;2.78;;;2.20;;
44110;SDS011;29774;52.664;5.074;2022-12-20T08:19:14;3.75;;;2.20;;
44110;SDS011;29774;52.664;5.074;2022-12-20T08:21:40;2.90;;;1.98;;
44110;SDS011;29774;52.664;5.074;2022-12-20T08:24:05;3.90;;;2.05;;
44110;SDS011;29774;52.664;5.074;2022-12-20T08:26:35;2.78;;;2.05;;
44110;SDS011;29774;52.664;5.074;2022-12-20T08:29:02;2.85;;;1.77;;
44110;SDS011;29774;52.664;5.074;2022-12-20T08:31:28;3.28;;;1.80;;
44110;SDS011;29774;52.664;5.074;2022-12-20T08:33:54;2.30;;;1.65;;
44110;SDS011;29774;52.664;5.074;2022-12-20T08:36:19;2.67;;;2.15;;
44110;SDS011;29774;52.664;5.074;2022-12-20T08:38:45;2.65;;;1.75;;
44110;SDS011;29774;52.664;5.074;2022-12-20T08:41:11;3.17;;;2.17;;
44110;SDS011;29774;52.664;5.074;2022-12-20T08:43:38;2.95;;;1.83;;
44110;SDS011;29774;52.664;5.074;2022-12-20T08:46:05;2.55;;;2.13;;
44110;SDS011;29774;52.664;5.074;2022-12-20T08:48:32;2.13;;;1.73;;
44110;SDS011;29774;52.664;5.074;2022-12-20T08:50:59;2.78;;;1.80;;
44110;SDS011;29774;52.664;5.074;2022-12-20T08:53:26;1.90;;;1.70;;
44110;SDS011;29774;52.664;5.074;2022-12-20T08:55:53;3.20;;;1.67;;
44110;SDS011;29774;52.664;5.074;2022-12-20T08:58:19;2.30;;;1.70;;
44110;SDS011;29774;52.664;5.074;2022-12-20T09:00:45;3.92;;;2.30;;
44110;SDS011;29774;52.664;5.074;2022-12-20T09:03:11;2.58;;;1.75;;
44110;SDS011;29774;52.664;5.074;2022-12-20T09:05:44;2.30;;;2.03;;
44110;SDS011;29774;52.664;5.074;2022-12-20T09:08:11;2.42;;;1.75;;
44110;SDS011;29774;52.664;5.074;2022-12-20T09:10:38;4.13;;;2.28;;
44110;SDS011;29774;52.664;5.074;2022-12-20T09:13:04;3.20;;;1.85;;
44110;SDS011;29774;52.664;5.074;2022-12-20T09:15:29;2.35;;;1.50;;
44110;SDS011;29774;52.664;5.074;2022-12-20T09:17:55;3.30;;;1.98;;
44110;SDS011;29774;52.664;5.074;2022-12-20T09:20:22;2.90;;;1.95;;
44110;SDS011;29774;52.664;5.074;2022-12-20T09:22:47;4.18;;;2.13;;
44110;SDS011;29774;52.664;5.074;2022-12-20T09:25:13;2.20;;;1.67;;
44110;SDS011;29774;52.664;5.074;2022-12-20T09:27:39;2.03;;;1.80;;
44110;SDS011;29774;52.664;5.074;2022-12-20T09:30:04;2.20;;;2.00;;
44110;SDS011;29774;52.664;5.074;2022-12-20T09:32:31;1.90;;;1.40;;
44110;SDS011;29774;52.664;5.074;2022-12-20T09:34:56;1.85;;;1.65;;
44110;SDS011;29774;52.664;5.074;2022-12-20T09:37:22;2.97;;;1.48;;
44110;SDS011;29774;52.664;5.074;2022-12-20T09:39:48;2.47;;;2.03;;
44110;SDS011;29774;52.664;5.074;2022-12-20T09:42:15;1.92;;;1.52;;
44110;SDS011;29774;52.664;5.074;2022-12-20T09:44:46;2.55;;;2.20;;
44110;SDS011;29774;52.664;5.074;2022-12-20T09:47:14;2.03;;;1.35;;
44110;SDS011;29774;52.664;5.074;2022-12-20T09:49:50;4.13;;;1.88;;
44110;SDS011;29774;52.664;5.074;2022-12-20T10:00:20;2.47;;;1.73;;
44110;SDS011;29774;52.664;5.074;2022-12-20T10:02:46;2.75;;;1.70;;
44110;SDS011;29774;52.664;5.074;2022-12-20T10:05:17;3.10;;;1.92;;
44110;SDS011;29774;52.664;5.074;2022-12-20T10:07:54;2.47;;;1.80;;
44110;SDS011;29774;52.664;5.074;2022-12-20T10:24:34;3.05;;;1.85;;
44110;SDS011;29774;52.664;5.074;2022-12-20T10:27:14;1.67;;;1.50;;
44110;SDS011;29774;52.664;5.074;2022-12-20T10:29:45;2.50;;;2.00;;
44110;SDS011;29774;52.664;5.074;2022-12-20T10:32:14;2.30;;;2.10;;
44110;SDS011;29774;52.664;5.074;2022-12-20T10:37:57;1.98;;;1.45;;
44110;SDS011;29774;52.664;5.074;2022-12-20T10:42:55;3.08;;;1.73;;
44110;SDS011;29774;52.664;5.074;2022-12-20T10:47:46;3.05;;;1.65;;
44110;SDS011;29774;52.664;5.074;2022-12-20T10:50:19;2.60;;;1.70;;
44110;SDS011;29774;52.664;5.074;2022-12-20T10:55:34;1.52;;;1.42;;
44110;SDS011;29774;52.664;5.074;2022-12-20T10:58:50;2.58;;;2.05;;
44110;SDS011;29774;52.664;5.074;2022-12-20T11:03:49;4.72;;;2.40;;
44110;SDS011;29774;52.664;5.074;2022-12-20T11:06:17;2.40;;;2.00;;
44110;SDS011;29774;52.664;5.074;2022-12-20T11:08:44;1.88;;;1.50;;
44110;SDS011;29774;52.664;5.074;2022-12-20T11:13:38;4.25;;;2.65;;
44110;SDS011;29774;52.664;5.074;2022-12-20T11:16:05;1.60;;;1.50;;
44110;SDS011;29774;52.664;5.074;2022-12-20T11:27:08;3.33;;;1.60;;
44110;SDS011;29774;52.664;5.074;2022-12-20T11:32:05;1.48;;;1.30;;
44110;SDS011;29774;52.664;5.074;2022-12-20T11:37:26;4.22;;;2.20;;
44110;SDS011;29774;52.664;5.074;2022-12-20T11:40:23;3.30;;;2.15;;
44110;SDS011;29774;52.664;5.074;2022-12-20T11:53:38;3.03;;;2.55;;
44110;SDS011;29774;52.664;5.074;2022-12-20T11:56:15;2.50;;;2.30;;
44110;SDS011;29774;52.664;5.074;2022-12-20T11:58:47;3.67;;;2.28;;
44110;SDS011;29774;52.664;5.074;2022-12-20T12:01:20;2.50;;;2.30;;
44110;SDS011;29774;52.664;5.074;2022-12-20T12:06:53;3.28;;;1.98;;
44110;SDS011;29774;52.664;5.074;2022-12-20T12:09:41;3.70;;;2.65;;
44110;SDS011;29774;52.664;5.074;2022-12-20T12:12:18;2.80;;;1.95;;
44110;SDS011;29774;52.664;5.074;2022-12-20T12:17:28;1.58;;;1.30;;
44110;SDS011;29774;52.664;5.074;2022-12-20T12:20:07;2.25;;;1.60;;
44110;SDS011;29774;52.664;5.074;2022-12-20T12:25:48;2.88;;;2.28;;
44110;SDS011;29774;52.664;5.074;2022-12-20T12:28:13;1.98;;;1.73;;
44110;SDS011;29774;52.664;5.074;2022-12-20T12:30:44;1.75;;;1.65;;
44110;SDS011;29774;52.664;5.074;2022-12-20T12:33:29;2.83;;;1.90;;
44110;SDS011;29774;52.664;5.074;2022-12-20T12:36:05;2.65;;;2.42;;
44110;SDS011;29774;52.664;5.074;2022-12-20T12:38:59;2.15;;;1.50;;
44110;SDS011;29774;52.664;5.074;2022-12-20T12:47:10;3.63;;;1.88;;
44110;SDS011;29774;52.664;5.074;2022-12-20T12:49:45;3.60;;;2.28;;
44110;SDS011;29774;52.664;5.074;2022-12-20T12:52:27;2.75;;;2.13;;
44110;SDS011;29774;52.664;5.074;2022-12-20T12:55:33;3.50;;;2.75;;
44110;SDS011;29774;52.664;5.074;2022-12-20T12:58:14;4.05;;;2.83;;
44110;SDS011;29774;52.664;5.074;2022-12-20T13:01:07;3.45;;;3.15;;
44110;SDS011;29774;52.664;5.074;2022-12-20T13:03:36;3.75;;;2.38;;
44110;SDS011;29774;52.664;5.074;2022-12-20T13:11:32;2.22;;;2.03;;
44110;SDS011;29774;52.664;5.074;2022-12-20T13:16:49;5.38;;;3.25;;
44110;SDS011;29774;52.664;5.074;2022-12-20T13:19:18;5.03;;;2.15;;
44110;SDS011;29774;52.664;5.074;2022-12-20T13:27:02;2.60;;;2.40;;
44110;SDS011;29774;52.664;5.074;2022-12-20T13:29:48;4.40;;;3.00;;
44110;SDS011;29774;52.664;5.074;2022-12-20T13:37:52;4.63;;;3.42;;
44110;SDS011;29774;52.664;5.074;2022-12-20T13:40:18;3.95;;;2.78;;
44110;SDS011;29774;52.664;5.074;2022-12-20T13:43:13;5.50;;;4.38;;
44110;SDS011;29774;52.664;5.074;2022-12-20T13:45:45;5.53;;;4.57;;
44110;SDS011;29774;52.664;5.074;2022-12-20T13:48:14;7.97;;;4.43;;
44110;SDS011;29774;52.664;5.074;2022-12-20T13:50:46;5.80;;;4.95;;
44110;SDS011;29774;52.664;5.074;2022-12-20T13:53:15;7.18;;;3.83;;
44110;SDS011;29774;52.664;5.074;2022-12-20T13:55:43;10.02;;;4.85;;
44110;SDS011;29774;52.664;5.074;2022-12-20T13:58:13;5.63;;;4.60;;
44110;SDS011;29774;52.664;5.074;2022-12-20T14:00:48;7.15;;;4.28;;
44110;SDS011;29774;52.664;5.074;2022-12-20T14:05:55;5.30;;;4.72;;
44110;SDS011;29774;52.664;5.074;2022-12-20T14:08:25;10.75;;;5.03;;
44110;SDS011;29774;52.664;5.074;2022-12-20T14:10:54;4.35;;;3.75;;
44110;SDS011;29774;52.664;5.074;2022-12-20T14:13:21;8.52;;;4.93;;
44110;SDS011;29774;52.664;5.074;2022-12-20T14:15:48;6.57;;;5.03;;
44110;SDS011;29774;52.664;5.074;2022-12-20T14:20:41;8.13;;;5.13;;
44110;SDS011;29774;52.664;5.074;2022-12-20T14:23:12;5.15;;;4.65;;
44110;SDS011;29774;52.664;5.074;2022-12-20T14:25:48;6.25;;;4.20;;
44110;SDS011;29774;52.664;5.074;2022-12-20T14:28:36;5.55;;;4.60;;
44110;SDS011;29774;52.664;5.074;2022-12-20T14:31:04;5.80;;;3.90;;
44110;SDS011;29774;52.664;5.074;2022-12-20T14:33:35;5.47;;;4.90;;
44110;SDS011;29774;52.664;5.074;2022-12-20T14:38:44;4.55;;;3.95;;
44110;SDS011;29774;52.664;5.074;2022-12-20T14:44:01;7.68;;;5.50;;
44110;SDS011;29774;52.664;5.074;2022-12-20T14:46:30;8.60;;;5.97;;
44110;SDS011;29774;52.664;5.074;2022-12-20T14:49:04;8.70;;;5.35;;
44110;SDS011;29774;52.664;5.074;2022-12-20T14:51:40;12.05;;;6.03;;
44110;SDS011;29774;52.664;5.074;2022-12-20T14:54:10;8.05;;;5.57;;
44110;SDS011;29774;52.664;5.074;2022-12-20T14:56:46;9.27;;;6.63;;
44110;SDS011;29774;52.664;5.074;2022-12-20T14:59:15;8.75;;;6.10;;
44110;SDS011;29774;52.664;5.074;2022-12-20T15:01:48;9.50;;;6.55;;
44110;SDS011;29774;52.664;5.074;2022-12-20T15:07:27;8.05;;;6.15;;
44110;SDS011;29774;52.664;5.074;2022-12-20T15:09:55;10.60;;;6.97;;
44110;SDS011;29774;52.664;5.074;2022-12-20T15:12:20;8.70;;;6.60;;
44110;SDS011;29774;52.664;5.074;2022-12-20T15:14:46;8.80;;;7.30;;
44110;SDS011;29774;52.664;5.074;2022-12-20T15:17:12;9.07;;;6.90;;
44110;SDS011;29774;52.664;5.074;2022-12-20T15:19:39;8.10;;;7.18;;
44110;SDS011;29774;52.664;5.074;2022-12-20T15:22:05;11.18;;;7.55;;
44110;SDS011;29774;52.664;5.074;2022-12-20T15:24:38;9.43;;;7.30;;
44110;SDS011;29774;52.664;5.074;2022-12-20T15:27:04;10.35;;;7.72;;
44110;SDS011;29774;52.664;5.074;2022-12-20T15:29:36;9.27;;;6.80;;
44110;SDS011;29774;52.664;5.074;2022-12-20T15:34:52;7.20;;;6.07;;
44110;SDS011;29774;52.664;5.074;2022-12-20T15:37:17;9.23;;;7.82;;
44110;SDS011;29774;52.664;5.074;2022-12-20T15:39:43;8.98;;;7.68;;
44110;SDS011;29774;52.664;5.074;2022-12-20T15:42:10;10.48;;;8.30;;
44110;SDS011;29774;52.664;5.074;2022-12-20T15:44:40;9.20;;;8.18;;
44110;SDS011;29774;52.664;5.074;2022-12-20T15:47:08;11.52;;;9.02;;
44110;SDS011;29774;52.664;5.074;2022-12-20T15:49:38;12.23;;;9.38;;
44110;SDS011;29774;52.664;5.074;2022-12-20T15:52:04;15.77;;;9.25;;
44110;SDS011;29774;52.664;5.074;2022-12-20T15:54:31;11.63;;;9.57;;
44110;SDS011;29774;52.664;5.074;2022-12-20T15:57:00;11.23;;;9.68;;
44110;SDS011;29774;52.664;5.074;2022-12-20T15:59:31;11.57;;;9.98;;
44110;SDS011;29774;52.664;5.074;2022-12-20T16:01:57;12.35;;;9.68;;
44110;SDS011;29774;52.664;5.074;2022-12-20T16:04:24;11.63;;;10.02;;
44110;SDS011;29774;52.664;5.074;2022-12-20T16:06:50;13.30;;;10.55;;
44110;SDS011;29774;52.664;5.074;2022-12-20T16:09:19;12.85;;;10.73;;
44110;SDS011;29774;52.664;5.074;2022-12-20T16:11:45;17.45;;;11.05;;
44110;SDS011;29774;52.664;5.074;2022-12-20T16:14:15;18.35;;;11.93;;
44110;SDS011;29774;52.664;5.074;2022-12-20T16:16:42;20.15;;;13.23;;
44110;SDS011;29774;52.664;5.074;2022-12-20T16:19:09;14.70;;;11.15;;
44110;SDS011;29774;52.664;5.074;2022-12-20T16:21:37;18.08;;;10.90;;
44110;SDS011;29774;52.664;5.074;2022-12-20T16:24:11;15.93;;;11.30;;
44110;SDS011;29774;52.664;5.074;2022-12-20T16:26:38;9.48;;;7.57;;
44110;SDS011;29774;52.664;5.074;2022-12-20T16:29:04;15.35;;;9.63;;
44110;SDS011;29774;52.664;5.074;2022-12-20T16:31:31;10.00;;;8.48;;
44110;SDS011;29774;52.664;5.074;2022-12-20T16:34:00;11.32;;;9.25;;
44110;SDS011;29774;52.664;5.074;2022-12-20T16:36:27;17.65;;;9.18;;
44110;SDS011;29774;52.664;5.074;2022-12-20T16:38:53;14.38;;;10.05;;
44110;SDS011;29774;52.664;5.074;2022-12-20T16:41:28;10.88;;;8.98;;
44110;SDS011;29774;52.664;5.074;2022-12-20T16:43:56;14.68;;;8.95;;
44110;SDS011;29774;52.664;5.074;2022-12-20T16:46:23;13.23;;;8.82;;
44110;SDS011;29774;52.664;5.074;2022-12-20T16:48:51;13.60;;;8.52;;
44110;SDS011;29774;52.664;5.074;2022-12-20T16:51:27;13.82;;;10.05;;
44110;SDS011;29774;52.664;5.074;2022-12-20T16:53:56;13.40;;;9.77;;
44110;SDS011;29774;52.664;5.074;2022-12-20T16:56:24;17.88;;;9.65;;
44110;SDS011;29774;52.664;5.074;2022-12-20T16:58:50;18.17;;;11.05;;
44110;SDS011;29774;52.664;5.074;2022-12-20T17:01:20;17.45;;;11.27;;